createdAt,value
2022-10-10T00:01:45.982Z,10.93
2022-10-10T00:06:49.314Z,10.85
2022-10-10T00:11:53.995Z,10.86
2022-10-10T00:16:57.158Z,10.67
2022-10-10T00:22:00.465Z,10.51
2022-10-10T00:27:05.197Z,10.48
2022-10-10T00:32:08.235Z,10.41
2022-10-10T00:37:11.547Z,10.40
2022-10-10T00:42:17.297Z,10.34
2022-10-10T00:47:21.268Z,10.36
2022-10-10T00:52:24.698Z,10.32
2022-10-10T00:57:29.543Z,10.30
2022-10-10T01:02:32.779Z,10.33
2022-10-10T01:07:36.536Z,10.20
2022-10-10T01:12:57.527Z,10.36
2022-10-10T01:18:09.565Z,10.31
2022-10-10T01:23:39.967Z,10.45
2022-10-10T01:28:51.962Z,10.44
2022-10-10T01:34:05.221Z,10.44
2022-10-10T01:39:15.304Z,10.40
2022-10-10T01:44:22.503Z,10.31
2022-10-10T01:49:30.913Z,10.35
2022-10-10T01:54:41.209Z,10.42
2022-10-10T02:00:04.400Z,10.42
2022-10-10T02:05:19.387Z,10.40
2022-10-10T02:10:27.329Z,10.36
2022-10-10T02:15:39.798Z,10.33
2022-10-10T02:20:45.205Z,10.22
2022-10-10T02:25:53.654Z,10.22
2022-10-10T02:31:03.537Z,10.20
2022-10-10T02:36:07.703Z,10.12
2022-10-10T02:41:16.271Z,10.05
2022-10-10T02:46:21.252Z,9.96
2022-10-10T02:51:28.504Z,9.87
2022-10-10T02:56:33.949Z,9.69
2022-10-10T03:01:38.748Z,9.61
2022-10-10T03:06:41.878Z,9.50
2022-10-10T03:11:45.164Z,9.45
2022-10-10T03:16:49.833Z,9.60
2022-10-10T03:21:53.109Z,9.63
2022-10-10T03:26:56.475Z,9.58
2022-10-10T03:32:01.233Z,9.43
2022-10-10T03:37:04.325Z,9.48
2022-10-10T03:42:07.705Z,9.41
2022-10-10T03:47:12.404Z,9.44
2022-10-10T03:52:15.774Z,9.41
2022-10-10T03:57:19.178Z,9.32
2022-10-10T04:02:24.096Z,9.30
2022-10-10T04:07:27.114Z,9.24
2022-10-10T04:12:30.465Z,9.23
2022-10-10T04:17:35.206Z,9.18
2022-10-10T04:22:38.572Z,9.33
2022-10-10T04:27:43.726Z,9.38
2022-10-10T04:32:48.632Z,9.43
2022-10-10T04:37:52.517Z,9.30
2022-10-10T04:42:56.344Z,9.41
2022-10-10T04:48:01.191Z,9.57
2022-10-10T04:53:04.318Z,9.58
2022-10-10T04:58:07.716Z,9.48
2022-10-10T05:03:13.129Z,9.66
2022-10-10T05:08:16.551Z,9.71
2022-10-10T05:13:19.889Z,9.86
2022-10-10T05:18:24.983Z,10.66
2022-10-10T05:23:28.295Z,10.78
2022-10-10T05:28:32.062Z,10.86
2022-10-10T05:33:36.893Z,10.71
2022-10-10T05:38:40.488Z,10.67
2022-10-10T05:43:43.822Z,10.49
2022-10-10T05:48:48.600Z,10.80
2022-10-10T05:53:51.763Z,10.79
2022-10-10T05:58:55.202Z,11.48
2022-10-10T06:03:59.980Z,11.93
2022-10-10T06:09:03.116Z,11.96
2022-10-10T06:14:06.534Z,12.20
2022-10-10T06:19:14.824Z,12.13
2022-10-10T06:24:18.743Z,12.00
2022-10-10T06:29:22.065Z,12.19
2022-10-10T06:34:26.836Z,21.00
2022-10-10T06:39:30.365Z,26.86
2022-10-10T06:44:33.739Z,30.87
2022-10-10T06:49:38.563Z,34.22
2022-10-10T06:54:42.035Z,35.76
2022-10-10T06:59:45.447Z,37.69
2022-10-10T07:04:50.339Z,39.01
2022-10-10T07:09:53.668Z,39.38
2022-10-10T07:14:57.120Z,40.13
2022-10-10T07:20:01.844Z,40.86
2022-10-10T07:25:07.318Z,41.18
2022-10-10T07:30:11.514Z,41.58
2022-10-10T07:35:16.841Z,41.41
2022-10-10T07:40:20.331Z,41.00
2022-10-10T07:45:23.731Z,39.83
2022-10-10T07:50:28.538Z,38.90
2022-10-10T07:55:32.050Z,39.28
2022-10-10T08:00:36.638Z,39.67
2022-10-10T08:05:42.828Z,39.36
2022-10-10T08:10:46.324Z,39.10
2022-10-10T08:15:52.379Z,38.58
2022-10-10T08:21:08.521Z,37.53
2022-10-10T08:26:13.655Z,36.76
2022-10-10T08:31:18.840Z,34.00
2022-10-10T08:36:25.139Z,30.48
2022-10-10T08:41:39.459Z,25.47
2022-10-10T08:46:46.024Z,22.82
2022-10-10T08:51:57.057Z,20.64
2022-10-10T08:57:05.527Z,19.37
2022-10-10T09:02:50.062Z,18.23
2022-10-10T09:08:13.606Z,17.23
2022-10-10T09:13:26.885Z,16.47
2022-10-10T09:18:59.590Z,16.08
2022-10-10T09:24:11.426Z,15.75
2022-10-10T09:29:29.279Z,15.35
2022-10-10T09:34:38.108Z,15.15
2022-10-10T09:39:50.209Z,14.74
2022-10-10T09:44:53.858Z,14.68
2022-10-10T09:49:57.742Z,14.50
2022-10-10T09:55:06.031Z,14.36
2022-10-10T10:00:34.194Z,14.27
2022-10-10T10:05:37.739Z,14.07
2022-10-10T10:10:42.707Z,13.84
2022-10-10T10:15:50.126Z,13.69
2022-10-10T10:20:56.532Z,13.58
2022-10-10T10:26:03.181Z,13.47
2022-10-10T10:31:07.010Z,13.31
2022-10-10T10:36:24.927Z,13.22
2022-10-10T10:41:36.959Z,13.17
2022-10-10T10:46:51.517Z,13.20
2022-10-10T10:52:22.951Z,13.00
2022-10-10T10:57:51.116Z,12.97
2022-10-10T11:03:35.115Z,12.82
2022-10-10T11:08:49.474Z,12.77
2022-10-10T11:14:01.095Z,12.63
2022-10-10T11:19:17.207Z,12.41
2022-10-10T11:24:30.411Z,12.47
2022-10-10T11:29:49.904Z,12.52
2022-10-10T11:35:04.331Z,12.51
2022-10-10T11:40:25.170Z,12.52
2022-10-10T11:45:34.551Z,12.61
2022-10-10T11:50:41.700Z,12.30
2022-10-10T11:55:50.551Z,12.14
2022-10-10T12:00:59.414Z,12.20
2022-10-10T12:06:10.103Z,12.24
2022-10-10T12:11:19.786Z,12.22
2022-10-10T12:16:30.692Z,12.09
2022-10-10T12:21:54.456Z,12.19
2022-10-10T12:27:30.567Z,12.04
2022-10-10T12:32:44.047Z,12.21
2022-10-10T12:38:09.981Z,12.09
2022-10-10T12:43:24.570Z,12.06
2022-10-10T12:48:29.558Z,11.74
2022-10-10T12:53:35.442Z,11.95
2022-10-10T12:58:40.920Z,11.93
2022-10-10T13:03:48.502Z,11.90
2022-10-10T13:08:52.937Z,11.74
2022-10-10T13:13:57.880Z,11.61
2022-10-10T13:19:02.727Z,11.50
2022-10-10T13:24:07.183Z,11.40
2022-10-10T13:29:23.912Z,11.35
2022-10-10T13:34:31.381Z,11.29
2022-10-10T13:39:38.471Z,11.29
2022-10-10T13:44:50.318Z,11.30
2022-10-10T13:49:59.023Z,11.29
2022-10-10T13:55:16.530Z,11.23
2022-10-10T14:00:23.113Z,11.15
2022-10-10T14:05:30.674Z,11.02
2022-10-10T14:10:37.124Z,10.85
2022-10-10T14:15:46.369Z,10.78
2022-10-10T14:20:51.950Z,10.65
2022-10-10T14:25:55.376Z,10.44
2022-10-10T14:30:58.743Z,10.32
2022-10-10T14:36:03.663Z,10.12
2022-10-10T14:41:07.433Z,9.91
2022-10-10T14:46:18.253Z,9.69
2022-10-10T14:51:34.158Z,9.52
2022-10-10T14:57:07.254Z,9.31
2022-10-10T15:02:02.767Z,9.15
2022-10-10T15:07:13.571Z,9.02
2022-10-10T15:12:18.012Z,8.81
2022-10-10T15:17:21.613Z,8.70
2022-10-10T15:22:27.577Z,8.54
2022-10-10T15:27:32.842Z,8.33
2022-10-10T15:32:40.226Z,8.21
2022-10-10T15:37:45.617Z,8.08
2022-10-10T15:42:49.724Z,7.91
2022-10-10T15:47:53.085Z,7.85
2022-10-10T15:52:57.822Z,7.75
2022-10-10T15:58:03.493Z,7.51
2022-10-10T16:03:07.235Z,7.32
2022-10-10T16:08:12.581Z,7.14
2022-10-10T16:13:15.930Z,7.08
2022-10-10T16:18:19.667Z,6.97
2022-10-10T16:23:24.877Z,6.94
2022-10-10T16:28:28.586Z,6.81
2022-10-10T16:33:33.686Z,6.73
2022-10-10T16:38:39.191Z,6.59
2022-10-10T16:43:44.440Z,6.54
2022-10-10T16:48:48.519Z,6.47
2022-10-10T16:53:53.427Z,6.45
2022-10-10T16:58:56.497Z,6.36
2022-10-10T17:04:01.366Z,6.28
2022-10-10T17:09:08.050Z,6.32
2022-10-10T17:14:11.901Z,6.29
2022-10-10T17:19:15.465Z,6.31
2022-10-10T17:24:20.275Z,6.32
2022-10-10T17:29:23.823Z,6.22
2022-10-10T17:34:27.488Z,6.17
2022-10-10T17:39:32.463Z,6.14
2022-10-10T17:44:42.016Z,6.06
2022-10-10T17:49:49.868Z,6.04
2022-10-10T17:54:55.617Z,6.01
2022-10-10T18:00:00.025Z,5.94
2022-10-10T18:05:03.493Z,5.86
2022-10-10T18:10:09.316Z,5.79
2022-10-10T18:15:12.767Z,5.64
2022-10-10T18:20:16.702Z,5.47
2022-10-10T18:25:25.051Z,5.42
2022-10-10T18:30:29.966Z,5.44
2022-10-10T18:35:33.363Z,5.40
2022-10-10T18:40:38.122Z,5.41
2022-10-10T18:45:41.525Z,5.37
2022-10-10T18:50:44.849Z,5.32
2022-10-10T18:55:57.253Z,5.26
2022-10-10T19:01:01.413Z,5.17
2022-10-10T19:06:06.170Z,5.16
2022-10-10T19:11:20.310Z,5.18
2022-10-10T19:16:23.729Z,5.11
2022-10-10T19:21:28.415Z,5.02
2022-10-10T19:26:34.204Z,4.93
2022-10-10T19:31:39.034Z,4.91
2022-10-10T19:36:42.309Z,4.97
2022-10-10T19:41:47.202Z,4.90
2022-10-10T19:46:50.570Z,4.85
2022-10-10T19:51:54.753Z,4.86
2022-10-10T19:56:59.494Z,4.83
2022-10-10T20:02:03.068Z,4.80
2022-10-10T20:07:06.472Z,4.71
2022-10-10T20:12:11.569Z,4.63
2022-10-10T20:17:15.245Z,4.49
2022-10-10T20:22:18.667Z,4.48
2022-10-10T20:27:25.724Z,4.46
2022-10-10T20:32:32.296Z,4.39
2022-10-10T20:37:35.820Z,4.38
2022-10-10T20:42:40.532Z,4.39
2022-10-10T20:47:43.793Z,4.35
2022-10-10T20:52:47.167Z,4.34
2022-10-10T20:57:51.942Z,4.32
2022-10-10T21:02:55.918Z,4.33
2022-10-10T21:07:59.249Z,4.30
2022-10-10T21:13:03.989Z,4.29
2022-10-10T21:18:07.480Z,4.20
2022-10-10T21:23:10.832Z,4.19
2022-10-10T21:28:15.721Z,4.16
2022-10-10T21:33:20.132Z,4.14
2022-10-10T21:38:23.780Z,3.99
2022-10-10T21:43:28.494Z,3.96
2022-10-10T21:48:31.847Z,3.94
2022-10-10T21:53:35.278Z,3.91
2022-10-10T21:58:41.756Z,3.90
2022-10-10T22:03:45.879Z,3.88
2022-10-10T22:08:50.785Z,3.89
2022-10-10T22:13:55.820Z,3.86
2022-10-10T22:18:59.726Z,3.82
2022-10-10T22:24:06.325Z,3.79
2022-10-10T22:29:11.084Z,3.76
2022-10-10T22:34:15.277Z,3.77
2022-10-10T22:39:18.854Z,3.73
2022-10-10T22:44:23.535Z,3.70
2022-10-10T22:49:27.469Z,3.64
2022-10-10T22:54:30.785Z,3.61
2022-10-10T22:59:35.550Z,3.62
2022-10-10T23:04:38.887Z,3.53
2022-10-10T23:09:42.343Z,3.53
2022-10-10T23:14:52.740Z,3.50
2022-10-10T23:19:56.014Z,3.50
2022-10-10T23:24:59.468Z,3.47
2022-10-10T23:30:05.742Z,3.47
2022-10-10T23:35:10.200Z,3.38
2022-10-10T23:40:13.545Z,3.32
2022-10-10T23:45:18.318Z,3.37
2022-10-10T23:50:21.627Z,3.34
2022-10-10T23:55:25.100Z,3.29
